sensor_id;sensor_type;location;lat;lon;timestamp;P1;durP1;ratioP1;P2;durP2;ratioP2
3795;SDS011;1913;50.660;7.834;2023-06-26T00:02:11;9.70;;;6.77;;
3795;SDS011;1913;50.660;7.834;2023-06-26T00:04:49;9.60;;;6.47;;
3795;SDS011;1913;50.660;7.834;2023-06-26T00:07:19;13.47;;;6.80;;
3795;SDS011;1913;50.660;7.834;2023-06-26T00:09:49;14.40;;;6.47;;
3795;SDS011;1913;50.660;7.834;2023-06-26T00:12:31;8.00;;;6.80;;
3795;SDS011;1913;50.660;7.834;2023-06-26T00:14:58;7.00;;;6.30;;
3795;SDS011;1913;50.660;7.834;2023-06-26T00:17:41;7.63;;;6.40;;
3795;SDS011;1913;50.660;7.834;2023-06-26T00:20:07;9.50;;;6.63;;
3795;SDS011;1913;50.660;7.834;2023-06-26T00:22:53;8.00;;;6.03;;
3795;SDS011;1913;50.660;7.834;2023-06-26T00:25:20;10.03;;;6.20;;
3795;SDS011;1913;50.660;7.834;2023-06-26T00:27:46;10.00;;;6.23;;
3795;SDS011;1913;50.660;7.834;2023-06-26T00:30:11;9.00;;;6.03;;
3795;SDS011;1913;50.660;7.834;2023-06-26T00:32:37;9.90;;;6.30;;
3795;SDS011;1913;50.660;7.834;2023-06-26T00:35:22;10.03;;;5.70;;
3795;SDS011;1913;50.660;7.834;2023-06-26T00:37:48;7.07;;;6.00;;
3795;SDS011;1913;50.660;7.834;2023-06-26T00:40:34;8.63;;;5.97;;
3795;SDS011;1913;50.660;7.834;2023-06-26T00:42:59;8.03;;;5.90;;
3795;SDS011;1913;50.660;7.834;2023-06-26T00:45:25;7.73;;;5.87;;
3795;SDS011;1913;50.660;7.834;2023-06-26T00:47:50;9.30;;;6.80;;
3795;SDS011;1913;50.660;7.834;2023-06-26T00:50:26;7.77;;;5.90;;
3795;SDS011;1913;50.660;7.834;2023-06-26T00:53:12;11.73;;;6.47;;
3795;SDS011;1913;50.660;7.834;2023-06-26T00:55:57;10.03;;;5.70;;
3795;SDS011;1913;50.660;7.834;2023-06-26T00:58:44;9.90;;;6.40;;
3795;SDS011;1913;50.660;7.834;2023-06-26T01:01:29;12.00;;;6.00;;
3795;SDS011;1913;50.660;7.834;2023-06-26T01:04:00;9.43;;;6.20;;
3795;SDS011;1913;50.660;7.834;2023-06-26T01:06:46;9.43;;;6.53;;
3795;SDS011;1913;50.660;7.834;2023-06-26T01:09:26;8.97;;;6.30;;
3795;SDS011;1913;50.660;7.834;2023-06-26T01:12:12;7.60;;;5.87;;
3795;SDS011;1913;50.660;7.834;2023-06-26T01:14:57;7.73;;;5.90;;
3795;SDS011;1913;50.660;7.834;2023-06-26T01:17:43;7.10;;;5.93;;
3795;SDS011;1913;50.660;7.834;2023-06-26T01:20:36;9.90;;;5.57;;
3795;SDS011;1913;50.660;7.834;2023-06-26T01:26:17;8.90;;;6.07;;
3795;SDS011;1913;50.660;7.834;2023-06-26T01:29:07;7.83;;;5.67;;
3795;SDS011;1913;50.660;7.834;2023-06-26T01:31:55;8.33;;;5.80;;
3795;SDS011;1913;50.660;7.834;2023-06-26T01:34:41;7.70;;;5.80;;
3795;SDS011;1913;50.660;7.834;2023-06-26T01:37:27;8.40;;;6.20;;
3795;SDS011;1913;50.660;7.834;2023-06-26T01:40:12;8.30;;;6.57;;
3795;SDS011;1913;50.660;7.834;2023-06-26T01:42:58;13.77;;;6.57;;
3795;SDS011;1913;50.660;7.834;2023-06-26T01:45:44;8.00;;;5.90;;
3795;SDS011;1913;50.660;7.834;2023-06-26T01:48:34;7.63;;;6.20;;
3795;SDS011;1913;50.660;7.834;2023-06-26T01:51:21;7.27;;;5.60;;
3795;SDS011;1913;50.660;7.834;2023-06-26T01:54:13;10.67;;;5.60;;
3795;SDS011;1913;50.660;7.834;2023-06-26T01:57:04;6.80;;;5.20;;
3795;SDS011;1913;50.660;7.834;2023-06-26T01:59:52;7.03;;;6.07;;
3795;SDS011;1913;50.660;7.834;2023-06-26T02:02:40;9.67;;;5.70;;
3795;SDS011;1913;50.660;7.834;2023-06-26T02:05:26;12.13;;;6.03;;
3795;SDS011;1913;50.660;7.834;2023-06-26T02:08:13;9.23;;;6.20;;
3795;SDS011;1913;50.660;7.834;2023-06-26T02:10:59;8.93;;;5.53;;
3795;SDS011;1913;50.660;7.834;2023-06-26T02:13:45;9.20;;;5.80;;
3795;SDS011;1913;50.660;7.834;2023-06-26T02:16:30;10.43;;;6.63;;
3795;SDS011;1913;50.660;7.834;2023-06-26T02:19:16;6.90;;;5.60;;
3795;SDS011;1913;50.660;7.834;2023-06-26T02:22:06;8.30;;;6.10;;
3795;SDS011;1913;50.660;7.834;2023-06-26T02:24:51;7.77;;;5.90;;
3795;SDS011;1913;50.660;7.834;2023-06-26T02:27:32;10.83;;;6.03;;
3795;SDS011;1913;50.660;7.834;2023-06-26T02:30:17;8.20;;;6.10;;
3795;SDS011;1913;50.660;7.834;2023-06-26T02:33:03;8.57;;;5.90;;
3795;SDS011;1913;50.660;7.834;2023-06-26T02:35:48;9.23;;;6.70;;
3795;SDS011;1913;50.660;7.834;2023-06-26T02:38:35;9.67;;;6.13;;
3795;SDS011;1913;50.660;7.834;2023-06-26T02:41:20;8.77;;;5.87;;
3795;SDS011;1913;50.660;7.834;2023-06-26T02:44:06;10.47;;;5.80;;
3795;SDS011;1913;50.660;7.834;2023-06-26T02:46:51;7.27;;;5.50;;
3795;SDS011;1913;50.660;7.834;2023-06-26T02:49:37;10.13;;;6.17;;
3795;SDS011;1913;50.660;7.834;2023-06-26T02:52:22;9.27;;;5.57;;
3795;SDS011;1913;50.660;7.834;2023-06-26T02:55:07;8.50;;;5.97;;
3795;SDS011;1913;50.660;7.834;2023-06-26T02:57:53;8.63;;;5.67;;
3795;SDS011;1913;50.660;7.834;2023-06-26T03:00:38;9.33;;;6.27;;
3795;SDS011;1913;50.660;7.834;2023-06-26T03:03:26;9.57;;;6.17;;
3795;SDS011;1913;50.660;7.834;2023-06-26T03:05:58;9.17;;;6.27;;
3795;SDS011;1913;50.660;7.834;2023-06-26T03:08:43;9.50;;;6.97;;
3795;SDS011;1913;50.660;7.834;2023-06-26T03:11:28;6.70;;;5.53;;
3795;SDS011;1913;50.660;7.834;2023-06-26T03:14:14;12.07;;;5.93;;
3795;SDS011;1913;50.660;7.834;2023-06-26T03:17:00;8.47;;;5.77;;
3795;SDS011;1913;50.660;7.834;2023-06-26T03:19:48;8.43;;;6.40;;
3795;SDS011;1913;50.660;7.834;2023-06-26T03:22:33;6.87;;;5.33;;
3795;SDS011;1913;50.660;7.834;2023-06-26T03:25:19;9.63;;;5.60;;
3795;SDS011;1913;50.660;7.834;2023-06-26T03:28:04;6.73;;;5.53;;
3795;SDS011;1913;50.660;7.834;2023-06-26T03:30:49;10.50;;;6.50;;
3795;SDS011;1913;50.660;7.834;2023-06-26T03:33:35;13.23;;;5.77;;
3795;SDS011;1913;50.660;7.834;2023-06-26T03:36:21;7.77;;;5.37;;
3795;SDS011;1913;50.660;7.834;2023-06-26T03:39:07;5.63;;;5.00;;
3795;SDS011;1913;50.660;7.834;2023-06-26T03:41:52;8.90;;;6.00;;
3795;SDS011;1913;50.660;7.834;2023-06-26T03:44:38;8.60;;;5.73;;
3795;SDS011;1913;50.660;7.834;2023-06-26T03:47:23;7.57;;;5.93;;
3795;SDS011;1913;50.660;7.834;2023-06-26T03:50:09;11.00;;;5.40;;
3795;SDS011;1913;50.660;7.834;2023-06-26T03:52:54;7.73;;;5.40;;
3795;SDS011;1913;50.660;7.834;2023-06-26T03:55:40;7.90;;;5.80;;
3795;SDS011;1913;50.660;7.834;2023-06-26T03:58:25;7.07;;;5.03;;
3795;SDS011;1913;50.660;7.834;2023-06-26T04:01:10;7.50;;;6.03;;
3795;SDS011;1913;50.660;7.834;2023-06-26T04:03:56;8.10;;;5.53;;
3795;SDS011;1913;50.660;7.834;2023-06-26T04:06:41;8.07;;;6.10;;
3795;SDS011;1913;50.660;7.834;2023-06-26T04:09:06;7.47;;;6.10;;
3795;SDS011;1913;50.660;7.834;2023-06-26T04:11:32;7.70;;;5.67;;
3795;SDS011;1913;50.660;7.834;2023-06-26T04:13:57;9.60;;;5.90;;
3795;SDS011;1913;50.660;7.834;2023-06-26T04:16:23;7.83;;;6.00;;
3795;SDS011;1913;50.660;7.834;2023-06-26T04:18:51;7.97;;;6.23;;
3795;SDS011;1913;50.660;7.834;2023-06-26T04:21:18;12.30;;;6.00;;
3795;SDS011;1913;50.660;7.834;2023-06-26T04:23:43;8.70;;;6.27;;
3795;SDS011;1913;50.660;7.834;2023-06-26T04:26:09;8.20;;;6.10;;
3795;SDS011;1913;50.660;7.834;2023-06-26T04:28:38;9.43;;;5.93;;
3795;SDS011;1913;50.660;7.834;2023-06-26T04:31:03;7.57;;;5.97;;
3795;SDS011;1913;50.660;7.834;2023-06-26T04:33:29;7.10;;;5.57;;
3795;SDS011;1913;50.660;7.834;2023-06-26T04:35:54;5.90;;;4.73;;
3795;SDS011;1913;50.660;7.834;2023-06-26T04:38:21;6.37;;;5.40;;
3795;SDS011;1913;50.660;7.834;2023-06-26T04:40:47;7.60;;;6.30;;
3795;SDS011;1913;50.660;7.834;2023-06-26T04:43:12;8.43;;;5.90;;
3795;SDS011;1913;50.660;7.834;2023-06-26T04:45:38;9.43;;;6.20;;
3795;SDS011;1913;50.660;7.834;2023-06-26T04:48:03;7.73;;;5.87;;
3795;SDS011;1913;50.660;7.834;2023-06-26T04:50:30;8.57;;;6.00;;
3795;SDS011;1913;50.660;7.834;2023-06-26T04:52:56;7.90;;;5.97;;
3795;SDS011;1913;50.660;7.834;2023-06-26T04:55:25;6.17;;;5.57;;
3795;SDS011;1913;50.660;7.834;2023-06-26T04:57:51;8.40;;;5.87;;
3795;SDS011;1913;50.660;7.834;2023-06-26T05:00:16;9.80;;;6.17;;
3795;SDS011;1913;50.660;7.834;2023-06-26T05:02:42;12.07;;;6.17;;
3795;SDS011;1913;50.660;7.834;2023-06-26T05:05:08;8.10;;;5.73;;
3795;SDS011;1913;50.660;7.834;2023-06-26T05:07:33;7.70;;;5.70;;
3795;SDS011;1913;50.660;7.834;2023-06-26T05:09:59;8.37;;;5.20;;
3795;SDS011;1913;50.660;7.834;2023-06-26T05:12:24;7.20;;;5.77;;
3795;SDS011;1913;50.660;7.834;2023-06-26T05:14:50;8.93;;;5.83;;
3795;SDS011;1913;50.660;7.834;2023-06-26T05:17:15;8.30;;;5.43;;
3795;SDS011;1913;50.660;7.834;2023-06-26T05:19:41;7.00;;;5.50;;
3795;SDS011;1913;50.660;7.834;2023-06-26T05:22:07;7.23;;;5.60;;
3795;SDS011;1913;50.660;7.834;2023-06-26T05:24:33;10.03;;;5.90;;
3795;SDS011;1913;50.660;7.834;2023-06-26T05:27:00;6.80;;;6.10;;
3795;SDS011;1913;50.660;7.834;2023-06-26T05:29:27;8.20;;;6.83;;
3795;SDS011;1913;50.660;7.834;2023-06-26T05:31:52;6.97;;;6.27;;
3795;SDS011;1913;50.660;7.834;2023-06-26T05:34:19;9.60;;;6.33;;
3795;SDS011;1913;50.660;7.834;2023-06-26T05:36:47;7.10;;;6.40;;
3795;SDS011;1913;50.660;7.834;2023-06-26T05:39:16;7.83;;;6.10;;
3795;SDS011;1913;50.660;7.834;2023-06-26T05:41:43;7.33;;;5.80;;
3795;SDS011;1913;50.660;7.834;2023-06-26T05:44:09;6.97;;;6.17;;
3795;SDS011;1913;50.660;7.834;2023-06-26T05:46:35;8.03;;;6.50;;
3795;SDS011;1913;50.660;7.834;2023-06-26T05:49:01;9.97;;;5.97;;
3795;SDS011;1913;50.660;7.834;2023-06-26T05:51:27;8.63;;;6.20;;
3795;SDS011;1913;50.660;7.834;2023-06-26T05:53:53;10.00;;;6.50;;
3795;SDS011;1913;50.660;7.834;2023-06-26T05:56:19;7.37;;;6.63;;
3795;SDS011;1913;50.660;7.834;2023-06-26T05:58:44;9.30;;;6.63;;
3795;SDS011;1913;50.660;7.834;2023-06-26T06:01:10;8.20;;;6.77;;
3795;SDS011;1913;50.660;7.834;2023-06-26T06:03:36;10.17;;;6.63;;
3795;SDS011;1913;50.660;7.834;2023-06-26T06:06:02;10.50;;;6.40;;
3795;SDS011;1913;50.660;7.834;2023-06-26T06:08:28;7.53;;;6.53;;
3795;SDS011;1913;50.660;7.834;2023-06-26T06:10:53;15.50;;;6.83;;
3795;SDS011;1913;50.660;7.834;2023-06-26T06:13:19;8.10;;;6.63;;
3795;SDS011;1913;50.660;7.834;2023-06-26T06:15:44;8.83;;;6.00;;
3795;SDS011;1913;50.660;7.834;2023-06-26T06:18:10;7.83;;;6.90;;
3795;SDS011;1913;50.660;7.834;2023-06-26T06:20:35;9.40;;;6.47;;
3795;SDS011;1913;50.660;7.834;2023-06-26T06:23:01;10.43;;;7.20;;
3795;SDS011;1913;50.660;7.834;2023-06-26T06:25:26;11.03;;;6.40;;
3795;SDS011;1913;50.660;7.834;2023-06-26T06:27:51;12.30;;;6.40;;
3795;SDS011;1913;50.660;7.834;2023-06-26T06:30:17;8.90;;;6.80;;
3795;SDS011;1913;50.660;7.834;2023-06-26T06:32:42;9.37;;;6.27;;
3795;SDS011;1913;50.660;7.834;2023-06-26T06:35:08;9.43;;;6.90;;
3795;SDS011;1913;50.660;7.834;2023-06-26T06:37:36;9.50;;;6.83;;
3795;SDS011;1913;50.660;7.834;2023-06-26T06:40:02;9.33;;;6.20;;
3795;SDS011;1913;50.660;7.834;2023-06-26T06:42:29;8.70;;;6.87;;
3795;SDS011;1913;50.660;7.834;2023-06-26T06:44:54;10.10;;;6.57;;
3795;SDS011;1913;50.660;7.834;2023-06-26T06:47:20;10.00;;;5.93;;
3795;SDS011;1913;50.660;7.834;2023-06-26T06:49:46;8.20;;;5.67;;
3795;SDS011;1913;50.660;7.834;2023-06-26T06:52:11;7.80;;;6.10;;
3795;SDS011;1913;50.660;7.834;2023-06-26T06:54:52;8.47;;;6.00;;
3795;SDS011;1913;50.660;7.834;2023-06-26T06:57:26;10.10;;;6.30;;
3795;SDS011;1913;50.660;7.834;2023-06-26T06:59:52;7.47;;;6.03;;
3795;SDS011;1913;50.660;7.834;2023-06-26T07:02:17;7.37;;;5.77;;
3795;SDS011;1913;50.660;7.834;2023-06-26T07:04:43;9.70;;;6.60;;
3795;SDS011;1913;50.660;7.834;2023-06-26T07:07:08;8.50;;;6.40;;
3795;SDS011;1913;50.660;7.834;2023-06-26T07:09:34;8.10;;;6.17;;
3795;SDS011;1913;50.660;7.834;2023-06-26T07:12:00;12.70;;;6.93;;
3795;SDS011;1913;50.660;7.834;2023-06-26T07:14:28;8.90;;;6.67;;
3795;SDS011;1913;50.660;7.834;2023-06-26T07:16:53;7.93;;;6.67;;
3795;SDS011;1913;50.660;7.834;2023-06-26T07:19:18;13.30;;;6.70;;
3795;SDS011;1913;50.660;7.834;2023-06-26T07:21:44;8.67;;;6.70;;
3795;SDS011;1913;50.660;7.834;2023-06-26T07:24:09;9.90;;;6.50;;
3795;SDS011;1913;50.660;7.834;2023-06-26T07:26:35;10.53;;;6.93;;
3795;SDS011;1913;50.660;7.834;2023-06-26T07:29:01;8.47;;;6.40;;
3795;SDS011;1913;50.660;7.834;2023-06-26T07:31:26;9.70;;;7.10;;
3795;SDS011;1913;50.660;7.834;2023-06-26T07:33:51;11.03;;;6.90;;
3795;SDS011;1913;50.660;7.834;2023-06-26T07:36:17;10.60;;;6.33;;
3795;SDS011;1913;50.660;7.834;2023-06-26T07:38:42;11.13;;;7.20;;
3795;SDS011;1913;50.660;7.834;2023-06-26T07:41:07;11.33;;;7.53;;
3795;SDS011;1913;50.660;7.834;2023-06-26T07:43:33;9.73;;;5.93;;
3795;SDS011;1913;50.660;7.834;2023-06-26T07:45:58;10.73;;;7.03;;
3795;SDS011;1913;50.660;7.834;2023-06-26T07:48:24;8.10;;;6.70;;
3795;SDS011;1913;50.660;7.834;2023-06-26T07:50:50;11.40;;;7.30;;
3795;SDS011;1913;50.660;7.834;2023-06-26T07:53:15;9.73;;;6.60;;
3795;SDS011;1913;50.660;7.834;2023-06-26T07:55:41;10.03;;;6.17;;
3795;SDS011;1913;50.660;7.834;2023-06-26T07:58:07;10.90;;;6.83;;
3795;SDS011;1913;50.660;7.834;2023-06-26T08:00:33;8.47;;;6.63;;
3795;SDS011;1913;50.660;7.834;2023-06-26T08:02:59;14.00;;;6.60;;
3795;SDS011;1913;50.660;7.834;2023-06-26T08:05:24;12.00;;;7.17;;
3795;SDS011;1913;50.660;7.834;2023-06-26T08:07:49;13.97;;;6.90;;
3795;SDS011;1913;50.660;7.834;2023-06-26T08:10:15;10.83;;;7.03;;
3795;SDS011;1913;50.660;7.834;2023-06-26T08:12:40;11.47;;;7.27;;
3795;SDS011;1913;50.660;7.834;2023-06-26T08:15:08;10.93;;;7.90;;
3795;SDS011;1913;50.660;7.834;2023-06-26T08:17:34;11.93;;;7.70;;
3795;SDS011;1913;50.660;7.834;2023-06-26T08:20:01;9.97;;;7.07;;
3795;SDS011;1913;50.660;7.834;2023-06-26T08:22:27;12.37;;;7.80;;
3795;SDS011;1913;50.660;7.834;2023-06-26T08:24:53;9.67;;;7.20;;
3795;SDS011;1913;50.660;7.834;2023-06-26T08:27:18;11.70;;;7.37;;
3795;SDS011;1913;50.660;7.834;2023-06-26T08:29:44;10.03;;;6.70;;
3795;SDS011;1913;50.660;7.834;2023-06-26T08:32:10;16.27;;;7.60;;
3795;SDS011;1913;50.660;7.834;2023-06-26T08:34:38;11.27;;;7.10;;
3795;SDS011;1913;50.660;7.834;2023-06-26T08:37:03;11.00;;;6.57;;
3795;SDS011;1913;50.660;7.834;2023-06-26T08:39:29;10.70;;;7.23;;
3795;SDS011;1913;50.660;7.834;2023-06-26T08:41:54;16.67;;;7.07;;
3795;SDS011;1913;50.660;7.834;2023-06-26T08:44:20;12.50;;;7.10;;
3795;SDS011;1913;50.660;7.834;2023-06-26T08:46:51;11.70;;;7.33;;
3795;SDS011;1913;50.660;7.834;2023-06-26T08:52:10;11.63;;;6.67;;
3795;SDS011;1913;50.660;7.834;2023-06-26T08:54:49;10.13;;;6.20;;
3795;SDS011;1913;50.660;7.834;2023-06-26T08:57:21;10.10;;;6.50;;
3795;SDS011;1913;50.660;7.834;2023-06-26T08:59:48;10.80;;;6.63;;
3795;SDS011;1913;50.660;7.834;2023-06-26T09:02:13;11.10;;;6.27;;
3795;SDS011;1913;50.660;7.834;2023-06-26T09:04:40;11.67;;;6.80;;
3795;SDS011;1913;50.660;7.834;2023-06-26T09:07:06;15.40;;;6.37;;
3795;SDS011;1913;50.660;7.834;2023-06-26T09:09:32;12.43;;;7.13;;
3795;SDS011;1913;50.660;7.834;2023-06-26T09:11:57;10.40;;;6.67;;
3795;SDS011;1913;50.660;7.834;2023-06-26T09:14:23;9.70;;;6.30;;
3795;SDS011;1913;50.660;7.834;2023-06-26T09:16:48;11.47;;;6.43;;
3795;SDS011;1913;50.660;7.834;2023-06-26T09:19:14;10.87;;;7.10;;
3795;SDS011;1913;50.660;7.834;2023-06-26T09:21:40;15.50;;;6.27;;
3795;SDS011;1913;50.660;7.834;2023-06-26T09:24:06;12.43;;;6.37;;
3795;SDS011;1913;50.660;7.834;2023-06-26T09:26:33;15.43;;;7.30;;
3795;SDS011;1913;50.660;7.834;2023-06-26T09:29:02;10.63;;;7.40;;
3795;SDS011;1913;50.660;7.834;2023-06-26T09:31:29;12.83;;;7.20;;
3795;SDS011;1913;50.660;7.834;2023-06-26T09:33:58;15.40;;;7.90;;
3795;SDS011;1913;50.660;7.834;2023-06-26T09:36:26;17.80;;;7.60;;
3795;SDS011;1913;50.660;7.834;2023-06-26T09:38:53;11.70;;;7.23;;
3795;SDS011;1913;50.660;7.834;2023-06-26T09:41:18;13.43;;;6.40;;
3795;SDS011;1913;50.660;7.834;2023-06-26T09:43:47;9.57;;;6.10;;
3795;SDS011;1913;50.660;7.834;2023-06-26T09:46:24;10.67;;;5.77;;
3795;SDS011;1913;50.660;7.834;2023-06-26T09:48:58;12.73;;;5.23;;
3795;SDS011;1913;50.660;7.834;2023-06-26T09:51:23;8.47;;;4.43;;
3795;SDS011;1913;50.660;7.834;2023-06-26T09:53:49;10.27;;;4.90;;
3795;SDS011;1913;50.660;7.834;2023-06-26T09:56:15;8.63;;;4.60;;
3795;SDS011;1913;50.660;7.834;2023-06-26T09:58:44;11.60;;;5.00;;
3795;SDS011;1913;50.660;7.834;2023-06-26T10:01:10;14.27;;;5.33;;
3795;SDS011;1913;50.660;7.834;2023-06-26T10:03:35;10.80;;;4.90;;
3795;SDS011;1913;50.660;7.834;2023-06-26T10:06:02;10.47;;;4.90;;
3795;SDS011;1913;50.660;7.834;2023-06-26T10:08:28;11.60;;;4.70;;
3795;SDS011;1913;50.660;7.834;2023-06-26T10:10:54;9.83;;;5.10;;
3795;SDS011;1913;50.660;7.834;2023-06-26T10:13:22;9.50;;;5.20;;
3795;SDS011;1913;50.660;7.834;2023-06-26T10:15:55;13.63;;;6.07;;
3795;SDS011;1913;50.660;7.834;2023-06-26T10:18:23;8.37;;;5.07;;
3795;SDS011;1913;50.660;7.834;2023-06-26T10:20:50;8.67;;;5.17;;
3795;SDS011;1913;50.660;7.834;2023-06-26T10:23:19;12.80;;;5.20;;
3795;SDS011;1913;50.660;7.834;2023-06-26T10:25:45;12.93;;;6.10;;
3795;SDS011;1913;50.660;7.834;2023-06-26T10:28:13;13.43;;;5.90;;
3795;SDS011;1913;50.660;7.834;2023-06-26T10:30:40;12.50;;;5.50;;
3795;SDS011;1913;50.660;7.834;2023-06-26T10:33:09;14.47;;;6.10;;
3795;SDS011;1913;50.660;7.834;2023-06-26T10:35:40;10.93;;;6.17;;
3795;SDS011;1913;50.660;7.834;2023-06-26T10:38:08;9.63;;;5.37;;
3795;SDS011;1913;50.660;7.834;2023-06-26T10:40:40;7.70;;;5.13;;
3795;SDS011;1913;50.660;7.834;2023-06-26T10:43:11;9.17;;;5.13;;
3795;SDS011;1913;50.660;7.834;2023-06-26T10:45:47;8.17;;;4.13;;
3795;SDS011;1913;50.660;7.834;2023-06-26T10:48:19;7.30;;;4.37;;
3795;SDS011;1913;50.660;7.834;2023-06-26T10:50:48;5.80;;;3.83;;
3795;SDS011;1913;50.660;7.834;2023-06-26T10:53:15;5.30;;;3.73;;
3795;SDS011;1913;50.660;7.834;2023-06-26T10:58:28;9.60;;;3.83;;
3795;SDS011;1913;50.660;7.834;2023-06-26T11:01:36;10.63;;;5.27;;
3795;SDS011;1913;50.660;7.834;2023-06-26T11:03:45;13.40;;;4.57;;
3795;SDS011;1913;50.660;7.834;2023-06-26T11:08:52;9.60;;;4.30;;
3795;SDS011;1913;50.660;7.834;2023-06-26T11:14:20;6.57;;;3.60;;
3795;SDS011;1913;50.660;7.834;2023-06-26T11:16:49;11.20;;;4.20;;
3795;SDS011;1913;50.660;7.834;2023-06-26T11:19:16;7.10;;;3.73;;
3795;SDS011;1913;50.660;7.834;2023-06-26T11:21:42;8.43;;;3.30;;
3795;SDS011;1913;50.660;7.834;2023-06-26T11:24:08;4.87;;;3.23;;
3795;SDS011;1913;50.660;7.834;2023-06-26T11:26:40;8.40;;;3.37;;
3795;SDS011;1913;50.660;7.834;2023-06-26T11:29:08;10.23;;;3.57;;
3795;SDS011;1913;50.660;7.834;2023-06-26T11:31:34;8.23;;;3.33;;
3795;SDS011;1913;50.660;7.834;2023-06-26T11:34:05;5.87;;;3.10;;
3795;SDS011;1913;50.660;7.834;2023-06-26T11:36:32;12.43;;;3.53;;
3795;SDS011;1913;50.660;7.834;2023-06-26T11:39:02;6.20;;;3.77;;
3795;SDS011;1913;50.660;7.834;2023-06-26T11:41:32;9.43;;;3.43;;
3795;SDS011;1913;50.660;7.834;2023-06-26T11:44:05;9.70;;;3.70;;
3795;SDS011;1913;50.660;7.834;2023-06-26T11:46:32;7.80;;;3.67;;
3795;SDS011;1913;50.660;7.834;2023-06-26T11:49:05;11.07;;;3.80;;
3795;SDS011;1913;50.660;7.834;2023-06-26T11:51:31;6.33;;;3.80;;
3795;SDS011;1913;50.660;7.834;2023-06-26T11:54:00;6.80;;;3.20;;
3795;SDS011;1913;50.660;7.834;2023-06-26T11:56:28;8.70;;;3.13;;
3795;SDS011;1913;50.660;7.834;2023-06-26T11:59:00;12.03;;;3.90;;
3795;SDS011;1913;50.660;7.834;2023-06-26T12:01:34;6.63;;;3.00;;
3795;SDS011;1913;50.660;7.834;2023-06-26T12:04:05;6.80;;;2.63;;
3795;SDS011;1913;50.660;7.834;2023-06-26T12:06:33;6.07;;;3.07;;
3795;SDS011;1913;50.660;7.834;2023-06-26T12:09:03;9.07;;;3.80;;
3795;SDS011;1913;50.660;7.834;2023-06-26T12:11:31;9.57;;;3.40;;
3795;SDS011;1913;50.660;7.834;2023-06-26T12:13:57;5.30;;;2.70;;
3795;SDS011;1913;50.660;7.834;2023-06-26T12:16:22;10.13;;;3.40;;
3795;SDS011;1913;50.660;7.834;2023-06-26T12:18:48;7.00;;;3.57;;
3795;SDS011;1913;50.660;7.834;2023-06-26T12:24:08;6.93;;;3.43;;
3795;SDS011;1913;50.660;7.834;2023-06-26T12:26:34;9.70;;;3.30;;
3795;SDS011;1913;50.660;7.834;2023-06-26T12:29:05;6.73;;;3.20;;
3795;SDS011;1913;50.660;7.834;2023-06-26T12:31:31;9.37;;;3.07;;
3795;SDS011;1913;50.660;7.834;2023-06-26T12:33:57;7.50;;;3.17;;
3795;SDS011;1913;50.660;7.834;2023-06-26T12:36:23;7.93;;;2.87;;
3795;SDS011;1913;50.660;7.834;2023-06-26T12:38:48;5.73;;;2.73;;
3795;SDS011;1913;50.660;7.834;2023-06-26T12:41:14;10.57;;;3.20;;
3795;SDS011;1913;50.660;7.834;2023-06-26T12:43:40;7.57;;;2.93;;
3795;SDS011;1913;50.660;7.834;2023-06-26T12:46:06;9.17;;;3.33;;
3795;SDS011;1913;50.660;7.834;2023-06-26T12:51:11;9.00;;;3.17;;
3795;SDS011;1913;50.660;7.834;2023-06-26T12:53:38;6.10;;;2.63;;
3795;SDS011;1913;50.660;7.834;2023-06-26T12:56:07;13.63;;;3.07;;
3795;SDS011;1913;50.660;7.834;2023-06-26T12:58:36;4.80;;;2.80;;
3795;SDS011;1913;50.660;7.834;2023-06-26T13:01:06;12.83;;;3.00;;
3795;SDS011;1913;50.660;7.834;2023-06-26T13:03:38;8.57;;;3.10;;
3795;SDS011;1913;50.660;7.834;2023-06-26T13:06:04;4.40;;;2.70;;
3795;SDS011;1913;50.660;7.834;2023-06-26T13:08:29;9.33;;;2.83;;
3795;SDS011;1913;50.660;7.834;2023-06-26T13:10:55;7.00;;;2.70;;
3795;SDS011;1913;50.660;7.834;2023-06-26T13:13:20;7.80;;;3.27;;
3795;SDS011;1913;50.660;7.834;2023-06-26T13:15:47;6.43;;;2.70;;
3795;SDS011;1913;50.660;7.834;2023-06-26T13:18:12;4.63;;;2.70;;
3795;SDS011;1913;50.660;7.834;2023-06-26T13:20:37;7.00;;;2.80;;
3795;SDS011;1913;50.660;7.834;2023-06-26T13:23:03;8.87;;;2.90;;
3795;SDS011;1913;50.660;7.834;2023-06-26T13:25:29;8.57;;;3.00;;
3795;SDS011;1913;50.660;7.834;2023-06-26T13:27:55;7.50;;;2.80;;
3795;SDS011;1913;50.660;7.834;2023-06-26T13:30:21;8.80;;;2.97;;
3795;SDS011;1913;50.660;7.834;2023-06-26T13:32:47;6.10;;;2.73;;
3795;SDS011;1913;50.660;7.834;2023-06-26T13:35:13;11.47;;;3.07;;
3795;SDS011;1913;50.660;7.834;2023-06-26T13:37:39;10.30;;;2.70;;
3795;SDS011;1913;50.660;7.834;2023-06-26T13:40:06;6.90;;;2.93;;
3795;SDS011;1913;50.660;7.834;2023-06-26T13:42:32;4.27;;;2.50;;
3795;SDS011;1913;50.660;7.834;2023-06-26T13:44:58;11.90;;;2.80;;
3795;SDS011;1913;50.660;7.834;2023-06-26T13:47:23;6.57;;;2.97;;
3795;SDS011;1913;50.660;7.834;2023-06-26T13:49:49;8.97;;;2.63;;
3795;SDS011;1913;50.660;7.834;2023-06-26T13:52:14;10.47;;;2.87;;
3795;SDS011;1913;50.660;7.834;2023-06-26T13:54:39;5.57;;;2.73;;
3795;SDS011;1913;50.660;7.834;2023-06-26T13:57:06;4.97;;;2.77;;
3795;SDS011;1913;50.660;7.834;2023-06-26T13:59:32;5.57;;;2.53;;
3795;SDS011;1913;50.660;7.834;2023-06-26T14:01:59;5.70;;;2.30;;
3795;SDS011;1913;50.660;7.834;2023-06-26T14:04:25;9.20;;;3.00;;
3795;SDS011;1913;50.660;7.834;2023-06-26T14:06:50;6.80;;;2.90;;
3795;SDS011;1913;50.660;7.834;2023-06-26T14:09:16;7.90;;;3.00;;
3795;SDS011;1913;50.660;7.834;2023-06-26T14:11:43;8.23;;;3.37;;
3795;SDS011;1913;50.660;7.834;2023-06-26T14:14:09;6.43;;;2.93;;
3795;SDS011;1913;50.660;7.834;2023-06-26T14:16:35;7.90;;;3.07;;
3795;SDS011;1913;50.660;7.834;2023-06-26T14:19:00;6.97;;;2.90;;
3795;SDS011;1913;50.660;7.834;2023-06-26T14:21:26;6.67;;;3.23;;
3795;SDS011;1913;50.660;7.834;2023-06-26T14:23:53;6.87;;;2.80;;
3795;SDS011;1913;50.660;7.834;2023-06-26T14:26:19;7.30;;;2.90;;
3795;SDS011;1913;50.660;7.834;2023-06-26T14:28:45;12.50;;;3.10;;
3795;SDS011;1913;50.660;7.834;2023-06-26T14:31:10;12.10;;;3.50;;
3795;SDS011;1913;50.660;7.834;2023-06-26T14:33:35;5.33;;;3.00;;
3795;SDS011;1913;50.660;7.834;2023-06-26T14:36:01;6.70;;;2.63;;
3795;SDS011;1913;50.660;7.834;2023-06-26T14:38:27;11.47;;;3.50;;
3795;SDS011;1913;50.660;7.834;2023-06-26T14:40:52;6.20;;;2.40;;
3795;SDS011;1913;50.660;7.834;2023-06-26T14:43:17;11.90;;;3.20;;
3795;SDS011;1913;50.660;7.834;2023-06-26T14:45:43;6.30;;;2.90;;
3795;SDS011;1913;50.660;7.834;2023-06-26T14:48:08;12.80;;;3.03;;
3795;SDS011;1913;50.660;7.834;2023-06-26T14:50:33;9.50;;;2.90;;
3795;SDS011;1913;50.660;7.834;2023-06-26T14:52:59;5.37;;;3.07;;
3795;SDS011;1913;50.660;7.834;2023-06-26T14:55:24;9.23;;;2.70;;
3795;SDS011;1913;50.660;7.834;2023-06-26T14:57:50;4.80;;;2.53;;
3795;SDS011;1913;50.660;7.834;2023-06-26T15:00:15;7.90;;;3.03;;
3795;SDS011;1913;50.660;7.834;2023-06-26T15:02:41;8.10;;;2.50;;
3795;SDS011;1913;50.660;7.834;2023-06-26T15:05:07;6.87;;;2.60;;
3795;SDS011;1913;50.660;7.834;2023-06-26T15:07:33;5.23;;;2.40;;
3795;SDS011;1913;50.660;7.834;2023-06-26T15:09:58;4.07;;;2.47;;
3795;SDS011;1913;50.660;7.834;2023-06-26T15:12:24;5.37;;;2.07;;
3795;SDS011;1913;50.660;7.834;2023-06-26T15:14:50;4.10;;;1.90;;
3795;SDS011;1913;50.660;7.834;2023-06-26T15:17:17;8.70;;;2.47;;
3795;SDS011;1913;50.660;7.834;2023-06-26T15:19:42;6.30;;;2.40;;
3795;SDS011;1913;50.660;7.834;2023-06-26T15:22:07;4.93;;;2.30;;
3795;SDS011;1913;50.660;7.834;2023-06-26T15:24:33;8.30;;;2.40;;
3795;SDS011;1913;50.660;7.834;2023-06-26T15:26:59;5.60;;;2.43;;
3795;SDS011;1913;50.660;7.834;2023-06-26T15:29:24;8.50;;;2.27;;
3795;SDS011;1913;50.660;7.834;2023-06-26T15:31:49;4.80;;;2.20;;
3795;SDS011;1913;50.660;7.834;2023-06-26T15:34:15;5.90;;;2.13;;
3795;SDS011;1913;50.660;7.834;2023-06-26T15:36:40;6.03;;;2.20;;
3795;SDS011;1913;50.660;7.834;2023-06-26T15:39:06;18.30;;;2.70;;
3795;SDS011;1913;50.660;7.834;2023-06-26T15:41:32;7.67;;;2.63;;
3795;SDS011;1913;50.660;7.834;2023-06-26T15:43:57;5.10;;;2.17;;
3795;SDS011;1913;50.660;7.834;2023-06-26T15:46:22;11.90;;;2.50;;
3795;SDS011;1913;50.660;7.834;2023-06-26T15:48:48;7.40;;;2.17;;
3795;SDS011;1913;50.660;7.834;2023-06-26T15:51:13;7.60;;;2.87;;